createdAt,value
2023-01-13T00:02:45.471Z,109.00
2023-01-13T00:05:49.813Z,109.67
2023-01-13T00:08:54.568Z,122.33
2023-01-13T00:12:01.351Z,107.67
2023-01-13T00:15:05.022Z,126.33
2023-01-13T00:18:08.768Z,106.67
2023-01-13T00:21:18.880Z,119.00
2023-01-13T00:24:25.558Z,110.67
2023-01-13T00:27:31.980Z,114.33
2023-01-13T00:30:40.645Z,103.67
2023-01-13T00:33:44.727Z,107.67
2023-01-13T00:36:48.804Z,104.67
2023-01-13T00:39:52.383Z,102.33
2023-01-13T00:43:21.402Z,113.67
2023-01-13T00:46:25.324Z,123.00
2023-01-13T00:49:29.659Z,110.33
2023-01-13T00:52:34.747Z,106.33
2023-01-13T00:55:41.149Z,123.00
2023-01-13T00:58:47.724Z,107.67
2023-01-13T01:01:57.918Z,137.00
2023-01-13T01:05:12.077Z,116.00
2023-01-13T01:08:16.979Z,111.67
2023-01-13T01:11:23.297Z,110.33
2023-01-13T01:14:29.437Z,105.33
2023-01-13T01:17:33.575Z,106.67
2023-01-13T01:20:38.299Z,94.67
2023-01-13T01:23:42.324Z,95.33
2023-01-13T01:26:47.251Z,98.67
2023-01-13T01:29:52.210Z,100.00
2023-01-13T01:32:57.369Z,99.00
2023-01-13T01:36:05.041Z,100.67
2023-01-13T01:39:09.195Z,93.00
2023-01-13T01:42:34.763Z,101.67
2023-01-13T01:45:42.866Z,100.33
2023-01-13T01:48:46.792Z,103.67
2023-01-13T01:51:55.124Z,89.00
2023-01-13T01:55:03.182Z,94.33
2023-01-13T01:58:17.284Z,103.67
2023-01-13T02:01:22.917Z,95.00
2023-01-13T02:04:32.177Z,90.33
2023-01-13T02:07:39.933Z,99.33
2023-01-13T02:10:47.455Z,94.00
2023-01-13T02:13:51.471Z,99.33
2023-01-13T02:17:46.901Z,90.75
2023-01-13T02:21:04.397Z,84.25
2023-01-13T02:24:50.064Z,82.75
2023-01-13T02:28:15.929Z,78.75
2023-01-13T02:31:43.232Z,87.00
2023-01-13T02:34:56.763Z,77.25
2023-01-13T02:38:30.147Z,79.75
2023-01-13T02:41:58.216Z,71.75
2023-01-13T02:45:08.849Z,74.00
2023-01-13T02:48:17.611Z,74.00
2023-01-13T02:51:25.869Z,73.00
2023-01-13T02:54:31.821Z,68.50
2023-01-13T02:57:38.367Z,77.50
2023-01-13T03:00:43.962Z,79.25
2023-01-13T03:03:50.190Z,77.25
2023-01-13T03:07:03.442Z,84.50
2023-01-13T03:10:17.801Z,80.25
2023-01-13T03:13:53.577Z,80.00
2023-01-13T03:17:28.566Z,80.00
2023-01-13T03:20:41.838Z,79.25
2023-01-13T03:23:53.044Z,90.25
2023-01-13T03:27:05.447Z,82.00
2023-01-13T03:30:17.344Z,72.75
2023-01-13T03:33:28.400Z,84.00
2023-01-13T03:36:35.510Z,84.50
2023-01-13T03:39:43.505Z,83.00
2023-01-13T03:43:14.481Z,88.00
2023-01-13T03:46:29.231Z,85.50
2023-01-13T03:49:41.103Z,88.00
2023-01-13T03:52:50.164Z,81.75
2023-01-13T03:55:58.925Z,82.50
2023-01-13T03:59:07.009Z,83.75
2023-01-13T04:02:19.565Z,77.50
2023-01-13T04:05:24.881Z,86.50
2023-01-13T04:08:31.295Z,83.00
2023-01-13T04:11:41.234Z,87.00
2023-01-13T04:14:45.957Z,86.25
2023-01-13T04:17:49.702Z,88.25
2023-01-13T04:21:00.112Z,83.25
2023-01-13T04:24:06.907Z,77.25
2023-01-13T04:27:12.292Z,77.50
2023-01-13T04:30:16.064Z,90.25
2023-01-13T04:33:21.268Z,88.00
2023-01-13T04:36:27.729Z,85.75
2023-01-13T04:39:33.149Z,78.50
2023-01-13T04:42:37.242Z,72.00
2023-01-13T04:45:41.732Z,83.75
2023-01-13T04:48:45.355Z,88.25
2023-01-13T04:51:50.350Z,95.00
2023-01-13T04:55:02.302Z,89.25
2023-01-13T04:58:07.246Z,86.25
2023-01-13T05:01:11.218Z,84.25
2023-01-13T05:04:17.354Z,92.67
2023-01-13T05:07:21.733Z,97.33
2023-01-13T05:10:28.294Z,86.25
2023-01-13T05:13:49.115Z,91.67
2023-01-13T05:17:01.885Z,96.00
2023-01-13T05:20:06.509Z,95.33
2023-01-13T05:23:27.768Z,93.50
2023-01-13T05:26:32.966Z,104.00
2023-01-13T05:29:37.206Z,94.67
2023-01-13T05:32:41.405Z,89.00
2023-01-13T05:35:49.740Z,85.00
2023-01-13T05:38:53.436Z,91.67
2023-01-13T05:42:19.219Z,99.33
2023-01-13T05:45:22.955Z,99.00
2023-01-13T05:48:29.468Z,90.00
2023-01-13T05:51:32.953Z,77.25
2023-01-13T05:54:37.762Z,88.67
2023-01-13T05:57:42.672Z,111.00
2023-01-13T06:00:47.599Z,100.67
2023-01-13T06:03:52.239Z,102.00
2023-01-13T06:06:56.790Z,101.00
2023-01-13T06:10:00.341Z,232.00
2023-01-13T06:13:05.908Z,116.00
2023-01-13T06:16:34.394Z,189.25
2023-01-13T06:19:38.477Z,113.67
2023-01-13T06:22:45.731Z,128.67
2023-01-13T06:26:20.227Z,167.00
2023-01-13T06:29:25.018Z,109.33
2023-01-13T06:32:33.865Z,141.33
2023-01-13T06:35:43.980Z,153.50
2023-01-13T06:38:51.176Z,140.67
2023-01-13T06:42:13.275Z,111.67
2023-01-13T06:45:19.735Z,118.67
2023-01-13T06:48:25.996Z,92.00
2023-01-13T06:51:30.280Z,88.00
2023-01-13T06:54:34.749Z,24.00
2023-01-13T06:58:09.477Z,203.50
2023-01-13T07:01:14.611Z,102.00
2023-01-13T07:04:20.711Z,97.67
2023-01-13T07:07:24.516Z,98.33
2023-01-13T07:10:28.556Z,120.00
2023-01-13T07:13:50.552Z,107.67
2023-01-13T07:16:56.300Z,108.00
2023-01-13T07:20:00.742Z,113.00
2023-01-13T07:23:06.953Z,107.33
2023-01-13T07:26:12.231Z,108.00
2023-01-13T07:29:18.861Z,93.67
2023-01-13T07:32:24.282Z,109.33
2023-01-13T07:35:28.577Z,102.67
2023-01-13T07:38:58.348Z,108.00
2023-01-13T07:42:20.651Z,111.33
2023-01-13T07:45:24.247Z,103.33
2023-01-13T07:48:36.088Z,95.75
2023-01-13T07:51:41.370Z,88.67
2023-01-13T07:54:45.604Z,70.00
2023-01-13T07:58:09.611Z,99.67
2023-01-13T08:01:16.879Z,97.25
2023-01-13T08:04:22.076Z,96.67
2023-01-13T08:07:29.243Z,86.00
2023-01-13T08:10:35.922Z,86.75
2023-01-13T08:13:39.819Z,87.00
2023-01-13T08:16:43.394Z,82.50
2023-01-13T08:19:48.841Z,80.00
2023-01-13T08:22:52.339Z,79.00
2023-01-13T08:25:56.412Z,92.00
2023-01-13T08:29:01.562Z,81.50
2023-01-13T08:32:06.637Z,75.75
2023-01-13T08:35:12.261Z,83.50
2023-01-13T08:38:20.338Z,88.50
2023-01-13T08:41:37.733Z,97.00
2023-01-13T08:44:42.228Z,77.00
2023-01-13T08:48:04.048Z,85.75
2023-01-13T08:51:12.555Z,67.50
2023-01-13T08:54:16.568Z,79.50
2023-01-13T08:57:22.666Z,84.25
2023-01-13T09:00:26.385Z,87.25
2023-01-13T09:03:30.199Z,96.25
2023-01-13T09:06:35.562Z,99.25
2023-01-13T09:09:42.082Z,89.00
2023-01-13T09:13:05.473Z,111.33
2023-01-13T09:16:10.669Z,106.67
2023-01-13T09:19:14.263Z,114.00
2023-01-13T09:22:22.002Z,95.75
2023-01-13T09:25:25.907Z,79.00
2023-01-13T09:28:29.755Z,99.00
2023-01-13T09:31:38.091Z,104.33
2023-01-13T09:35:00.246Z,84.50
2023-01-13T09:38:06.563Z,90.00
2023-01-13T09:41:35.221Z,93.00
2023-01-13T09:44:47.024Z,77.00
2023-01-13T09:47:57.933Z,75.75
2023-01-13T09:51:09.855Z,67.00
2023-01-13T09:54:33.158Z,69.50
2023-01-13T09:57:40.084Z,87.25
2023-01-13T10:00:57.684Z,72.50
2023-01-13T10:04:05.812Z,79.00
2023-01-13T10:07:17.549Z,77.50
2023-01-13T10:10:37.280Z,84.00
2023-01-13T10:13:42.427Z,64.25
2023-01-13T10:16:53.995Z,78.75
2023-01-13T10:20:05.542Z,72.25
2023-01-13T10:23:26.191Z,54.00
2023-01-13T10:26:46.213Z,60.75
2023-01-13T10:29:50.183Z,70.25
2023-01-13T10:32:58.016Z,64.75
2023-01-13T10:36:05.977Z,60.00
2023-01-13T10:39:18.430Z,59.50
2023-01-13T10:42:25.556Z,63.50
2023-01-13T10:45:35.753Z,91.33
2023-01-13T10:48:42.239Z,84.50
2023-01-13T10:51:46.475Z,51.25
2023-01-13T10:54:53.021Z,45.50
2023-01-13T10:57:58.528Z,46.25
2023-01-13T11:01:04.208Z,83.75
2023-01-13T11:04:28.804Z,48.75
2023-01-13T11:07:36.471Z,57.25
2023-01-13T11:10:47.693Z,52.50
2023-01-13T11:14:13.526Z,59.00
2023-01-13T11:17:34.649Z,48.75
2023-01-13T11:20:46.871Z,53.25
2023-01-13T11:24:04.220Z,56.25
2023-01-13T11:27:17.677Z,57.00
2023-01-13T11:30:36.048Z,62.00
2023-01-13T11:34:00.794Z,52.25
2023-01-13T11:37:13.009Z,58.50
2023-01-13T11:40:23.286Z,51.25
2023-01-13T11:43:34.367Z,51.75
2023-01-13T11:46:42.880Z,50.25
2023-01-13T11:49:50.592Z,60.00
2023-01-13T11:53:12.934Z,68.00
2023-01-13T11:56:44.380Z,66.25
2023-01-13T12:00:06.294Z,61.00
2023-01-13T12:03:39.082Z,54.00
2023-01-13T12:06:43.665Z,68.00
2023-01-13T12:10:05.292Z,70.50
2023-01-13T12:13:24.221Z,53.75
2023-01-13T12:16:35.213Z,62.75
2023-01-13T12:19:50.981Z,63.00
2023-01-13T12:23:02.269Z,61.75
2023-01-13T12:26:12.191Z,64.50
2023-01-13T12:29:19.604Z,71.25
2023-01-13T12:32:36.811Z,73.25
2023-01-13T12:35:51.183Z,65.75
2023-01-13T12:38:59.624Z,71.00
2023-01-13T12:42:32.892Z,77.00
2023-01-13T12:45:37.884Z,79.25
2023-01-13T12:49:04.690Z,81.75
2023-01-13T12:52:20.283Z,75.25
2023-01-13T12:55:30.232Z,78.50
2023-01-13T12:58:34.865Z,66.25
2023-01-13T13:01:39.957Z,77.50
2023-01-13T13:04:49.703Z,74.25
2023-01-13T13:08:06.257Z,79.75
2023-01-13T13:11:43.866Z,70.50
2023-01-13T13:15:05.370Z,76.00
2023-01-13T13:18:36.320Z,71.75
2023-01-13T13:22:19.181Z,70.50
2023-01-13T13:25:36.786Z,70.50
2023-01-13T13:28:58.982Z,70.75
2023-01-13T13:32:32.607Z,73.00
2023-01-13T13:35:53.016Z,83.50
2023-01-13T13:39:39.710Z,68.50
2023-01-13T13:43:09.878Z,75.25
2023-01-13T13:46:45.746Z,72.00
2023-01-13T13:49:54.613Z,75.50
2023-01-13T13:53:07.174Z,92.50
2023-01-13T13:56:22.683Z,90.00
2023-01-13T13:59:31.242Z,83.00
2023-01-13T14:02:39.002Z,86.75
2023-01-13T14:05:54.793Z,82.50
2023-01-13T14:09:01.494Z,89.50
2023-01-13T14:12:16.539Z,84.00
2023-01-13T14:15:39.231Z,84.50
2023-01-13T14:18:46.977Z,87.25
2023-01-13T14:21:51.008Z,91.25
2023-01-13T14:24:57.836Z,102.00
2023-01-13T14:28:09.788Z,111.00
2023-01-13T14:31:23.286Z,93.00
2023-01-13T14:34:33.290Z,86.00
2023-01-13T14:37:40.335Z,99.33
2023-01-13T14:40:47.620Z,87.75
2023-01-13T14:43:57.868Z,90.25
2023-01-13T14:47:27.111Z,105.33
2023-01-13T14:50:34.811Z,102.00
2023-01-13T14:53:46.551Z,96.25
2023-01-13T14:56:55.286Z,88.00
2023-01-13T15:00:05.416Z,78.50
2023-01-13T15:03:19.198Z,82.75
2023-01-13T15:06:30.952Z,86.75
2023-01-13T15:09:43.162Z,82.00
2023-01-13T15:12:51.260Z,85.50
2023-01-13T15:15:59.574Z,89.75
2023-01-13T15:19:05.066Z,97.00
2023-01-13T15:22:11.518Z,91.00
2023-01-13T15:25:20.388Z,130.33
2023-01-13T15:28:35.904Z,105.00
2023-01-13T15:31:41.928Z,103.33
2023-01-13T15:34:54.280Z,109.33
2023-01-13T15:37:59.844Z,116.33
2023-01-13T15:41:03.369Z,140.33
2023-01-13T15:44:21.070Z,105.00
2023-01-13T15:47:29.059Z,118.00
2023-01-13T15:50:34.729Z,136.33
2023-01-13T15:53:39.250Z,111.00
2023-01-13T15:56:43.328Z,147.33
2023-01-13T15:59:50.565Z,137.00
2023-01-13T16:02:56.353Z,149.67
2023-01-13T16:06:03.072Z,128.00
2023-01-13T16:09:13.001Z,173.33
2023-01-13T16:12:18.800Z,147.00
2023-01-13T16:15:25.086Z,108.00
2023-01-13T16:18:32.343Z,129.67
2023-01-13T16:21:50.637Z,125.00
2023-01-13T16:24:54.558Z,136.67
2023-01-13T16:28:23.619Z,109.67
2023-01-13T16:31:41.535Z,113.67
2023-01-13T16:34:47.438Z,92.75
2023-01-13T16:37:58.408Z,87.67
2023-01-13T16:41:05.892Z,104.67
2023-01-13T16:44:13.326Z,96.33
2023-01-13T16:47:23.359Z,93.00
2023-01-13T16:50:36.799Z,94.33
2023-01-13T16:53:44.824Z,96.67
2023-01-13T16:56:51.715Z,104.00
2023-01-13T17:00:07.755Z,102.00
2023-01-13T17:03:26.354Z,91.00
2023-01-13T17:06:39.844Z,104.67
2023-01-13T17:09:53.983Z,91.00
2023-01-13T17:13:14.843Z,114.00
2023-01-13T17:16:22.873Z,100.00
2023-01-13T17:19:30.112Z,95.00
2023-01-13T17:22:34.120Z,101.00
2023-01-13T17:25:39.930Z,95.33
2023-01-13T17:28:48.147Z,109.33
2023-01-13T17:31:57.461Z,103.00
2023-01-13T17:35:08.534Z,92.25
2023-01-13T17:38:20.534Z,101.67
2023-01-13T17:41:57.660Z,107.33
2023-01-13T17:45:12.587Z,106.33
2023-01-13T17:48:18.094Z,92.50
2023-01-13T17:51:30.741Z,85.25
2023-01-13T17:54:43.882Z,99.00
2023-01-13T17:57:50.219Z,150.00
2023-01-13T18:00:54.041Z,256.25
2023-01-13T18:03:59.107Z,150.00
2023-01-13T18:07:03.392Z,92.00
2023-01-13T18:10:08.224Z,91.50
2023-01-13T18:13:13.319Z,81.25
2023-01-13T18:16:19.197Z,92.25
2023-01-13T18:19:42.419Z,93.75
2023-01-13T18:23:09.301Z,91.25
2023-01-13T18:26:34.700Z,95.25
2023-01-13T18:29:47.226Z,121.33
2023-01-13T18:32:53.947Z,94.75
2023-01-13T18:36:01.536Z,88.50
2023-01-13T18:39:06.149Z,92.75
2023-01-13T18:42:30.295Z,103.67
2023-01-13T18:45:37.917Z,112.33
2023-01-13T18:48:44.641Z,126.33
2023-01-13T18:51:49.474Z,127.67
2023-01-13T18:54:54.307Z,95.67
2023-01-13T18:58:00.720Z,106.33
2023-01-13T19:01:06.974Z,123.67
2023-01-13T19:04:16.900Z,121.67
2023-01-13T19:07:24.760Z,111.00
2023-01-13T19:10:35.049Z,173.50
2023-01-13T19:13:39.002Z,247.00
2023-01-13T19:16:44.323Z,167.50
2023-01-13T19:20:11.732Z,128.00
2023-01-13T19:23:15.933Z,156.75
2023-01-13T19:26:19.840Z,162.75
2023-01-13T19:29:24.761Z,154.33
2023-01-13T19:32:33.858Z,181.50
2023-01-13T19:35:38.502Z,125.00
2023-01-13T19:38:42.799Z,118.33
2023-01-13T19:42:29.625Z,137.33
2023-01-13T19:45:35.373Z,203.50
2023-01-13T19:48:42.947Z,88.75
2023-01-13T19:51:47.941Z,153.67
2023-01-13T19:54:51.948Z,150.33
2023-01-13T19:57:59.584Z,195.25
2023-01-13T20:01:11.833Z,163.00
2023-01-13T20:04:31.375Z,163.00
2023-01-13T20:07:35.943Z,208.25
2023-01-13T20:10:43.452Z,162.50
2023-01-13T20:13:47.094Z,221.25
2023-01-13T20:16:51.409Z,264.25
2023-01-13T20:19:56.601Z,196.50
2023-01-13T20:23:00.627Z,151.75
2023-01-13T20:26:08.943Z,169.25
2023-01-13T20:29:13.154Z,139.75
2023-01-13T20:32:16.917Z,141.33
2023-01-13T20:35:24.418Z,178.00
2023-01-13T20:38:27.977Z,143.33
2023-01-13T20:41:49.726Z,142.67
2023-01-13T20:44:53.221Z,133.00
2023-01-13T20:47:57.613Z,122.67
2023-01-13T20:51:08.031Z,126.00
2023-01-13T20:54:14.108Z,140.00
2023-01-13T20:57:20.851Z,134.67
2023-01-13T21:00:24.978Z,164.00
2023-01-13T21:03:29.011Z,147.33
2023-01-13T21:06:36.475Z,130.00
2023-01-13T21:09:41.361Z,116.00
2023-01-13T21:13:04.000Z,128.67
2023-01-13T21:16:10.847Z,132.00
2023-01-13T21:19:18.297Z,110.33
2023-01-13T21:22:23.739Z,104.00
2023-01-13T21:25:35.212Z,106.33
2023-01-13T21:28:44.486Z,124.33
2023-01-13T21:31:50.324Z,115.33
2023-01-13T21:34:53.942Z,122.67
2023-01-13T21:38:02.332Z,119.33
2023-01-13T21:41:14.739Z,196.25
2023-01-13T21:44:39.412Z,146.33
2023-01-13T21:47:52.137Z,147.67
2023-01-13T21:50:56.184Z,122.67
2023-01-13T21:54:03.248Z,110.67
2023-01-13T21:57:07.752Z,139.33
2023-01-13T22:00:13.425Z,146.33
2023-01-13T22:03:26.706Z,122.33
2023-01-13T22:06:32.255Z,120.67
2023-01-13T22:09:41.884Z,113.00
2023-01-13T22:12:54.196Z,119.67
2023-01-13T22:16:04.741Z,112.33
2023-01-13T22:19:11.866Z,133.33
2023-01-13T22:22:18.583Z,112.00
2023-01-13T22:25:28.047Z,107.67
2023-01-13T22:28:34.394Z,110.67
2023-01-13T22:31:39.462Z,104.67
2023-01-13T22:34:49.066Z,121.00
2023-01-13T22:37:52.479Z,105.00
2023-01-13T22:41:07.939Z,107.33
2023-01-13T22:44:16.695Z,101.33
2023-01-13T22:47:24.259Z,101.33
2023-01-13T22:50:28.916Z,103.67
2023-01-13T22:53:35.015Z,101.67
2023-01-13T22:56:43.399Z,109.33
2023-01-13T22:59:49.301Z,92.67
2023-01-13T23:02:57.680Z,93.75
2023-01-13T23:06:03.215Z,100.33
2023-01-13T23:09:10.610Z,107.33
2023-01-13T23:12:16.606Z,110.00
2023-01-13T23:15:22.967Z,106.33
2023-01-13T23:18:27.442Z,94.00
2023-01-13T23:21:33.271Z,103.00
2023-01-13T23:24:37.617Z,107.33
2023-01-13T23:27:42.603Z,100.33
2023-01-13T23:30:46.662Z,90.75
2023-01-13T23:33:50.433Z,95.00
2023-01-13T23:36:54.255Z,96.25
2023-01-13T23:39:57.695Z,71.25
2023-01-13T23:43:04.070Z,87.25
2023-01-13T23:46:12.097Z,90.50
2023-01-13T23:49:17.033Z,86.75
2023-01-13T23:52:20.666Z,90.00
2023-01-13T23:55:28.136Z,98.00
2023-01-13T23:58:33.609Z,106.33
